Buoy 51659

sailwx.info

Track history (hours):
 
Tides and Currents Weather Stations Pressure Air Temp Water Temp Dewpoint Dewpoint Depression Visibility Wind Speed Wind Dir Waves Ship Positions

Drifting buoy 51659

Last reported at 2016-Sep-25 20:00 UTC. Time now 2016-Sep-25 22:34 UTC.
Position S 10°14' W 178°30'.

Water temperature 29.5 ° C

Date/timePositionNaut miles runAvg speedWind from/ knotsBaromVisibWave heightAir tempDewpointWater temp
2016-Sep-25 20:00S 10°14' W 178°30'0 0.0 29.5
2016-Sep-25 19:00S 10°14' W 178°30'1 0.4 29.5
2016-Sep-25 16:00S 10°13' W 178°29'1 0.6 29.5
2016-Sep-25 14:00S 10°13' W 178°31'1 0.2 29.5
2016-Sep-25 09:00S 10°13' W 178°31'0 0.1 29.5
2016-Sep-25 06:00S 10°14' W 178°31'0 0.4 29.6
2016-Sep-25 05:00S 10°14' W 178°31'0 0.1 29.7
2016-Sep-25 03:00S 10°14' W 178°31'1 0.1 29.8
2016-Sep-24 22:00S 10°15' W 178°31'1 0.4 29.6
2016-Sep-24 20:00S 10°15' W 178°31'1 0.9 29.5
2016-Sep-24 19:00S 10°16' W 178°32'1 0.3 29.5
2016-Sep-24 17:00S 10°16' W 178°32'3 0.8 29.5
2016-Sep-24 14:00S 10°18' W 178°34'1 0.2 29.5
2016-Sep-24 07:00S 10°18' W 178°35'0 0.0 29.7
2016-Sep-24 05:00S 10°18' W 178°35'1 0.8 29.8
2016-Sep-24 04:00S 10°19' W 178°35'0 0.1 29.9
2016-Sep-24 03:00S 10°19' W 178°35'2 0.3 29.9
2016-Sep-23 22:00S 10°20' W 178°36'1 0.5 29.5
2016-Sep-23 20:00S 10°20' W 178°37'2 0.4 29.4
2016-Sep-23 14:00S 10°20' W 178°40'1 0.2 29.4
2016-Sep-23 08:00S 10°20' W 178°41'1 0.6 29.5
2016-Sep-23 06:00S 10°20' W 178°42'0 0.0 29.5
2016-Sep-23 05:00S 10°20' W 178°42'0 0.0 29.5
2016-Sep-23 03:00S 10°20' W 178°42'0 0.2 29.6
2016-Sep-23 01:00S 10°21' W 178°42'0 0.1 29.6
2016-Sep-22 21:00S 10°21' W 178°43'1 0.8 29.4
2016-Sep-22 20:00S 10°21' W 178°42'3 0.6 29.4
2016-Sep-22 15:00S 10°23' W 178°44'0 0.1 29.3
2016-Sep-22 10:00S 10°23' W 178°44'0 0.1 29.4
2016-Sep-22 09:00S 10°23' W 178°44'1 0.5 29.4
2016-Sep-22 06:00S 10°24' W 178°45'1 0.7 29.5
2016-Sep-22 05:00S 10°25' W 178°44'1 0.4 29.6
2016-Sep-22 03:00S 10°26' W 178°45'1 0.8 29.9
2016-Sep-22 02:00S 10°26' W 178°46'0 0.0 29.9
2016-Sep-22 01:00S 10°26' W 178°46'2 0.3 30.0
2016-Sep-21 20:00S 10°28' W 178°45'1 1.4 29.4
2016-Sep-21 19:00S 10°29' W 178°46'1 0.3 29.4
2016-Sep-21 17:00S 10°29' W 178°47'2 0.9 29.4
2016-Sep-21 15:00S 10°30' W 178°49'0 0.0 29.5
2016-Sep-21 13:00S 10°30' W 178°49'1 0.5 29.5
2016-Sep-21 10:00S 10°31' W 178°49'1 0.4 29.6
2016-Sep-21 08:00S 10°31' W 178°50'1 0.3 29.6
2016-Sep-21 06:00S 10°32' W 178°50'1 0.5 29.8
2016-Sep-21 05:00S 10°32' W 178°50'1 1.3 29.8
2016-Sep-21 04:00S 10°32' W 178°51'1 0.3 29.9
2016-Sep-21 02:00S 10°32' W 178°52'2 0.4 29.8
2016-Sep-20 20:00S 10°32' W 178°54'1 0.4 29.4
2016-Sep-20 17:00S 10°31' W 178°55'1 0.2 29.4
2016-Sep-20 13:00S 10°31' W 178°56'1 0.2 29.4
2016-Sep-20 09:00S 10°31' W 178°56'2 1.5 29.5
2016-Sep-20 08:00S 10°30' W 178°58'0 0.2 29.5
2016-Sep-20 07:00S 10°30' W 178°58'1 0.6 29.6
2016-Sep-20 06:00S 10°30' W 178°57'0 0.3 29.6
2016-Sep-20 05:00S 10°29' W 178°57'1 0.7 29.7
2016-Sep-20 04:00S 10°29' W 178°58'1 0.4 29.8
2016-Sep-20 02:00S 10°29' W 178°58'1 0.4 29.8
2016-Sep-19 22:00S 10°28' W 178°57'1 0.4 29.5
2016-Sep-19 20:00S 10°27' W 178°57'1 0.2 29.4
2016-Sep-19 13:00S 10°26' W 178°56'1 0.1 29.4
2016-Sep-19 09:00S 10°26' W 178°57'1 1.3 29.5
2016-Sep-19 08:00S 10°25' W 178°56'0 0.1 29.5
2016-Sep-19 05:00S 10°24' W 178°56'0 0.0 29.6
2016-Sep-19 04:00S 10°24' W 178°56'0 0.2 29.6
2016-Sep-19 02:00S 10°25' W 178°55'1 0.2 29.6
2016-Sep-18 22:00S 10°24' W 178°55'0 0.1 29.4
2016-Sep-18 18:00S 10°23' W 178°55'0 0.1 29.3
2016-Sep-18 17:00S 10°23' W 178°55'0 0.0 29.3
2016-Sep-18 16:00S 10°23' W 178°55'1 0.3 29.3
2016-Sep-18 14:00S 10°23' W 178°56'0 0.0 29.3
2016-Sep-18 13:00S 10°23' W 178°56'3 0.7 29.3
2016-Sep-18 09:00S 10°22' W 178°58'1 1.0 29.4
2016-Sep-18 08:00S 10°23' W 178°59'1 1.1 29.4
2016-Sep-18 07:00S 10°22' W 178°59'0 0.4 29.4
2016-Sep-18 06:00S 10°21' W 178°59'1 1.0 29.4
2016-Sep-18 05:00S 10°21' W 178°58'0 0.0 29.5
2016-Sep-18 04:00S 10°21' W 178°58'3 1.6 29.5
2016-Sep-18 02:00S 10°20' W 179°01'1 0.2 29.6
2016-Sep-17 20:00S 10°19' W 179°01'2 1.7 29.4
2016-Sep-17 19:00S 10°18' W 179°02'2 0.9 29.4
2016-Sep-17 17:00S 10°16' W 179°02'0 0.0 29.4
2016-Sep-17 16:00S 10°16' W 179°02'1 0.8 29.4
2016-Sep-17 15:00S 10°15' W 179°03'2 0.5 29.4
2016-Sep-17 10:00S 10°13' W 179°03'1 0.6 29.4
2016-Sep-17 09:00S 10°12' W 179°03'0 0.0 29.5
2016-Sep-17 08:00S 10°12' W 179°03'3 1.4 29.5
2016-Sep-17 06:00S 10°09' W 179°03'5 5.1 29.5
2016-Sep-17 05:00S 10°05' W 179°01'0 0.0 29.5
2016-Sep-17 03:00S 10°05' W 179°01'1 0.1 29.5
2016-Sep-16 20:00S 10°04' W 178°60'1 0.6 29.4
2016-Sep-16 18:00S 10°03' W 178°59'2 1.0 29.4
2016-Sep-16 16:00S 10°02' W 178°58'1 0.6 29.4
2016-Sep-16 14:00S 10°02' W 178°57'0 0.0 29.5
2016-Sep-16 10:00S 10°02' W 178°57'1 0.7 29.5
2016-Sep-16 08:00S 10°01' W 178°56'1 1.2 29.5
2016-Sep-16 07:00S 10°01' W 178°55'1 0.4 29.5
2016-Sep-16 05:00S 10°00' W 178°54'1 0.3 29.5
2016-Sep-16 03:00S 10°00' W 178°54'0 0.0 29.6
2016-Sep-16 01:00S 10°00' W 178°54'0 0.1 29.6
2016-Sep-15 21:00S 09°60' W 178°53'0 0.5 29.5
2016-Sep-15 20:00S 09°60' W 178°53'   29.5
Track history (hours):
 
Tides and Currents Weather Stations Pressure Air Temp Water Temp Dewpoint Dewpoint Depression Visibility Wind Speed Wind Dir Waves Ship Positions

Drifting buoy 51659

Last reported at 2016-Sep-25 20:00 UTC. Time now 2016-Sep-25 22:34 UTC.
Position S 10°14' W 178°30'.

Water temperature 29.5 ° C

Date/timePositionNaut miles runAvg speedWind from/ knotsBaromVisibWave heightAir tempDewpointWater temp
2016-Sep-25 20:00S 10°14' W 178°30'0 0.0 29.5
2016-Sep-25 19:00S 10°14' W 178°30'1 0.4 29.5
2016-Sep-25 16:00S 10°13' W 178°29'1 0.6 29.5
2016-Sep-25 14:00S 10°13' W 178°31'1 0.2 29.5
2016-Sep-25 09:00S 10°13' W 178°31'0 0.1 29.5
2016-Sep-25 06:00S 10°14' W 178°31'0 0.4 29.6
2016-Sep-25 05:00S 10°14' W 178°31'0 0.1 29.7
2016-Sep-25 03:00S 10°14' W 178°31'1 0.1 29.8
2016-Sep-24 22:00S 10°15' W 178°31'1 0.4 29.6
2016-Sep-24 20:00S 10°15' W 178°31'1 0.9 29.5
2016-Sep-24 19:00S 10°16' W 178°32'1 0.3 29.5
2016-Sep-24 17:00S 10°16' W 178°32'3 0.8 29.5
2016-Sep-24 14:00S 10°18' W 178°34'1 0.2 29.5
2016-Sep-24 07:00S 10°18' W 178°35'0 0.0 29.7
2016-Sep-24 05:00S 10°18' W 178°35'1 0.8 29.8
2016-Sep-24 04:00S 10°19' W 178°35'0 0.1 29.9
2016-Sep-24 03:00S 10°19' W 178°35'2 0.3 29.9
2016-Sep-23 22:00S 10°20' W 178°36'1 0.5 29.5
2016-Sep-23 20:00S 10°20' W 178°37'2 0.4 29.4
2016-Sep-23 14:00S 10°20' W 178°40'1 0.2 29.4
2016-Sep-23 08:00S 10°20' W 178°41'1 0.6 29.5
2016-Sep-23 06:00S 10°20' W 178°42'0 0.0 29.5
2016-Sep-23 05:00S 10°20' W 178°42'0 0.0 29.5
2016-Sep-23 03:00S 10°20' W 178°42'0 0.2 29.6
2016-Sep-23 01:00S 10°21' W 178°42'0 0.1 29.6
2016-Sep-22 21:00S 10°21' W 178°43'1 0.8 29.4
2016-Sep-22 20:00S 10°21' W 178°42'3 0.6 29.4
2016-Sep-22 15:00S 10°23' W 178°44'0 0.1 29.3
2016-Sep-22 10:00S 10°23' W 178°44'0 0.1 29.4
2016-Sep-22 09:00S 10°23' W 178°44'1 0.5 29.4
2016-Sep-22 06:00S 10°24' W 178°45'1 0.7 29.5
2016-Sep-22 05:00S 10°25' W 178°44'1 0.4 29.6
2016-Sep-22 03:00S 10°26' W 178°45'1 0.8 29.9
2016-Sep-22 02:00S 10°26' W 178°46'0 0.0 29.9
2016-Sep-22 01:00S 10°26' W 178°46'2 0.3 30.0
2016-Sep-21 20:00S 10°28' W 178°45'1 1.4 29.4
2016-Sep-21 19:00S 10°29' W 178°46'1 0.3 29.4
2016-Sep-21 17:00S 10°29' W 178°47'2 0.9 29.4
2016-Sep-21 15:00S 10°30' W 178°49'0 0.0 29.5
2016-Sep-21 13:00S 10°30' W 178°49'1 0.5 29.5
2016-Sep-21 10:00S 10°31' W 178°49'1 0.4 29.6
2016-Sep-21 08:00S 10°31' W 178°50'1 0.3 29.6
2016-Sep-21 06:00S 10°32' W 178°50'1 0.5 29.8
2016-Sep-21 05:00S 10°32' W 178°50'1 1.3 29.8
2016-Sep-21 04:00S 10°32' W 178°51'1 0.3 29.9
2016-Sep-21 02:00S 10°32' W 178°52'2 0.4 29.8
2016-Sep-20 20:00S 10°32' W 178°54'1 0.4 29.4
2016-Sep-20 17:00S 10°31' W 178°55'1 0.2 29.4
2016-Sep-20 13:00S 10°31' W 178°56'1 0.2 29.4
2016-Sep-20 09:00S 10°31' W 178°56'2 1.5 29.5
2016-Sep-20 08:00S 10°30' W 178°58'0 0.2 29.5
2016-Sep-20 07:00S 10°30' W 178°58'1 0.6 29.6
2016-Sep-20 06:00S 10°30' W 178°57'0 0.3 29.6
2016-Sep-20 05:00S 10°29' W 178°57'1 0.7 29.7
2016-Sep-20 04:00S 10°29' W 178°58'1 0.4 29.8
2016-Sep-20 02:00S 10°29' W 178°58'1 0.4 29.8
2016-Sep-19 22:00S 10°28' W 178°57'1 0.4 29.5
2016-Sep-19 20:00S 10°27' W 178°57'1 0.2 29.4
2016-Sep-19 13:00S 10°26' W 178°56'1 0.1 29.4
2016-Sep-19 09:00S 10°26' W 178°57'1 1.3 29.5
2016-Sep-19 08:00S 10°25' W 178°56'0 0.1 29.5
2016-Sep-19 05:00S 10°24' W 178°56'0 0.0 29.6
2016-Sep-19 04:00S 10°24' W 178°56'0 0.2 29.6
2016-Sep-19 02:00S 10°25' W 178°55'1 0.2 29.6
2016-Sep-18 22:00S 10°24' W 178°55'0 0.1 29.4
2016-Sep-18 18:00S 10°23' W 178°55'0 0.1 29.3
2016-Sep-18 17:00S 10°23' W 178°55'0 0.0 29.3
2016-Sep-18 16:00S 10°23' W 178°55'1 0.3 29.3
2016-Sep-18 14:00S 10°23' W 178°56'0 0.0 29.3
2016-Sep-18 13:00S 10°23' W 178°56'3 0.7 29.3
2016-Sep-18 09:00S 10°22' W 178°58'1 1.0 29.4
2016-Sep-18 08:00S 10°23' W 178°59'1 1.1 29.4
2016-Sep-18 07:00S 10°22' W 178°59'0 0.4 29.4
2016-Sep-18 06:00S 10°21' W 178°59'1 1.0 29.4
2016-Sep-18 05:00S 10°21' W 178°58'0 0.0 29.5
2016-Sep-18 04:00S 10°21' W 178°58'3 1.6 29.5
2016-Sep-18 02:00S 10°20' W 179°01'1 0.2 29.6
2016-Sep-17 20:00S 10°19' W 179°01'2 1.7 29.4
2016-Sep-17 19:00S 10°18' W 179°02'2 0.9 29.4
2016-Sep-17 17:00S 10°16' W 179°02'0 0.0 29.4
2016-Sep-17 16:00S 10°16' W 179°02'1 0.8 29.4
2016-Sep-17 15:00S 10°15' W 179°03'2 0.5 29.4
2016-Sep-17 10:00S 10°13' W 179°03'1 0.6 29.4
2016-Sep-17 09:00S 10°12' W 179°03'0 0.0 29.5
2016-Sep-17 08:00S 10°12' W 179°03'3 1.4 29.5
2016-Sep-17 06:00S 10°09' W 179°03'5 5.1 29.5
2016-Sep-17 05:00S 10°05' W 179°01'0 0.0 29.5
2016-Sep-17 03:00S 10°05' W 179°01'1 0.1 29.5
2016-Sep-16 20:00S 10°04' W 178°60'1 0.6 29.4
2016-Sep-16 18:00S 10°03' W 178°59'2 1.0 29.4
2016-Sep-16 16:00S 10°02' W 178°58'1 0.6 29.4
2016-Sep-16 14:00S 10°02' W 178°57'0 0.0 29.5
2016-Sep-16 10:00S 10°02' W 178°57'1 0.7 29.5
2016-Sep-16 08:00S 10°01' W 178°56'1 1.2 29.5
2016-Sep-16 07:00S 10°01' W 178°55'1 0.4 29.5
2016-Sep-16 05:00S 10°00' W 178°54'1 0.3 29.5
2016-Sep-16 03:00S 10°00' W 178°54'0 0.0 29.6
2016-Sep-16 01:00S 10°00' W 178°54'0 0.1 29.6
2016-Sep-15 21:00S 09°60' W 178°53'0 0.5 29.5
2016-Sep-15 20:00S 09°60' W 178°53'   29.5

Dump ship's entire track history